sensor_id;sensor_type;location;lat;lon;timestamp;temperature;humidity
10419;DHT22;5256;48.728;9.140;2023-04-24T00:01:27;9.30;99.90
10419;DHT22;5256;48.728;9.140;2023-04-24T00:03:55;9.30;99.90
10419;DHT22;5256;48.728;9.140;2023-04-24T00:06:21;9.30;99.90
10419;DHT22;5256;48.728;9.140;2023-04-24T00:08:48;9.30;99.90
10419;DHT22;5256;48.728;9.140;2023-04-24T00:11:14;9.30;99.90
10419;DHT22;5256;48.728;9.140;2023-04-24T00:13:40;9.20;99.90
10419;DHT22;5256;48.728;9.140;2023-04-24T00:16:05;9.20;99.90
10419;DHT22;5256;48.728;9.140;2023-04-24T00:18:31;9.20;99.90
10419;DHT22;5256;48.728;9.140;2023-04-24T00:20:56;9.20;99.90
10419;DHT22;5256;48.728;9.140;2023-04-24T00:23:22;9.30;99.90
10419;DHT22;5256;48.728;9.140;2023-04-24T00:25:47;9.30;99.90
10419;DHT22;5256;48.728;9.140;2023-04-24T00:28:13;9.30;99.90
10419;DHT22;5256;48.728;9.140;2023-04-24T00:30:39;9.30;99.90
10419;DHT22;5256;48.728;9.140;2023-04-24T00:33:05;9.40;99.90
10419;DHT22;5256;48.728;9.140;2023-04-24T00:35:30;9.40;99.90
10419;DHT22;5256;48.728;9.140;2023-04-24T00:37:56;9.40;99.90
10419;DHT22;5256;48.728;9.140;2023-04-24T00:40:22;9.40;99.90
10419;DHT22;5256;48.728;9.140;2023-04-24T00:42:47;9.50;99.90
10419;DHT22;5256;48.728;9.140;2023-04-24T00:45:13;9.50;99.90
10419;DHT22;5256;48.728;9.140;2023-04-24T00:47:41;9.60;99.90
10419;DHT22;5256;48.728;9.140;2023-04-24T00:50:07;9.60;99.90
10419;DHT22;5256;48.728;9.140;2023-04-24T00:52:33;9.60;99.90
10419;DHT22;5256;48.728;9.140;2023-04-24T00:54:59;9.60;99.90
10419;DHT22;5256;48.728;9.140;2023-04-24T00:57:24;9.60;99.90
10419;DHT22;5256;48.728;9.140;2023-04-24T00:59:51;9.60;99.90
10419;DHT22;5256;48.728;9.140;2023-04-24T01:02:18;9.60;99.90
10419;DHT22;5256;48.728;9.140;2023-04-24T01:04:45;9.60;99.90
10419;DHT22;5256;48.728;9.140;2023-04-24T01:07:10;9.70;99.90
10419;DHT22;5256;48.728;9.140;2023-04-24T01:09:40;9.70;99.90
10419;DHT22;5256;48.728;9.140;2023-04-24T01:12:07;9.70;99.90
10419;DHT22;5256;48.728;9.140;2023-04-24T01:14:33;9.70;99.90
10419;DHT22;5256;48.728;9.140;2023-04-24T01:16:59;9.60;99.90
10419;DHT22;5256;48.728;9.140;2023-04-24T01:19:24;9.70;99.90
10419;DHT22;5256;48.728;9.140;2023-04-24T01:21:53;9.60;99.90
10419;DHT22;5256;48.728;9.140;2023-04-24T01:24:20;9.60;99.90
10419;DHT22;5256;48.728;9.140;2023-04-24T01:26:46;9.70;99.90
10419;DHT22;5256;48.728;9.140;2023-04-24T01:29:12;9.70;99.90
10419;DHT22;5256;48.728;9.140;2023-04-24T01:31:39;9.70;99.90
10419;DHT22;5256;48.728;9.140;2023-04-24T01:34:05;9.70;99.90
10419;DHT22;5256;48.728;9.140;2023-04-24T01:36:33;9.60;99.90
10419;DHT22;5256;48.728;9.140;2023-04-24T01:39:00;9.50;99.90
10419;DHT22;5256;48.728;9.140;2023-04-24T01:41:26;9.40;99.90
10419;DHT22;5256;48.728;9.140;2023-04-24T01:43:52;9.40;99.90
10419;DHT22;5256;48.728;9.140;2023-04-24T01:46:17;9.40;99.90
10419;DHT22;5256;48.728;9.140;2023-04-24T01:48:45;9.40;99.90
10419;DHT22;5256;48.728;9.140;2023-04-24T01:51:10;9.30;99.90
10419;DHT22;5256;48.728;9.140;2023-04-24T01:53:36;9.20;99.90
10419;DHT22;5256;48.728;9.140;2023-04-24T01:56:02;9.30;99.90
10419;DHT22;5256;48.728;9.140;2023-04-24T01:58:27;9.30;99.90
10419;DHT22;5256;48.728;9.140;2023-04-24T02:00:56;9.30;99.90
10419;DHT22;5256;48.728;9.140;2023-04-24T02:03:24;9.30;99.90
10419;DHT22;5256;48.728;9.140;2023-04-24T02:05:50;9.20;99.90
10419;DHT22;5256;48.728;9.140;2023-04-24T02:08:15;9.20;99.90
10419;DHT22;5256;48.728;9.140;2023-04-24T02:10:41;9.20;99.90
10419;DHT22;5256;48.728;9.140;2023-04-24T02:13:06;9.30;99.90
10419;DHT22;5256;48.728;9.140;2023-04-24T02:15:32;9.30;99.90
10419;DHT22;5256;48.728;9.140;2023-04-24T02:17:57;9.20;99.90
10419;DHT22;5256;48.728;9.140;2023-04-24T02:20:23;9.20;99.90
10419;DHT22;5256;48.728;9.140;2023-04-24T02:22:49;9.20;99.90
10419;DHT22;5256;48.728;9.140;2023-04-24T02:25:14;9.10;99.90
10419;DHT22;5256;48.728;9.140;2023-04-24T02:27:40;9.10;99.90
10419;DHT22;5256;48.728;9.140;2023-04-24T02:30:06;9.10;99.90
10419;DHT22;5256;48.728;9.140;2023-04-24T02:32:32;9.10;99.90
10419;DHT22;5256;48.728;9.140;2023-04-24T02:34:59;9.00;99.90
10419;DHT22;5256;48.728;9.140;2023-04-24T02:37:24;9.00;99.90
10419;DHT22;5256;48.728;9.140;2023-04-24T02:39:50;9.10;99.90
10419;DHT22;5256;48.728;9.140;2023-04-24T02:42:15;9.10;99.90
10419;DHT22;5256;48.728;9.140;2023-04-24T02:44:41;9.10;99.90
10419;DHT22;5256;48.728;9.140;2023-04-24T02:47:07;9.10;99.90
10419;DHT22;5256;48.728;9.140;2023-04-24T02:49:33;9.10;99.90
10419;DHT22;5256;48.728;9.140;2023-04-24T02:51:59;9.20;99.90
10419;DHT22;5256;48.728;9.140;2023-04-24T02:54:25;9.20;99.90
10419;DHT22;5256;48.728;9.140;2023-04-24T02:56:50;9.20;99.90
10419;DHT22;5256;48.728;9.140;2023-04-24T02:59:16;9.20;99.90
10419;DHT22;5256;48.728;9.140;2023-04-24T03:01:41;9.10;99.90
10419;DHT22;5256;48.728;9.140;2023-04-24T03:04:07;9.10;99.90
10419;DHT22;5256;48.728;9.140;2023-04-24T03:06:32;9.10;99.90
10419;DHT22;5256;48.728;9.140;2023-04-24T03:08:58;9.00;99.90
10419;DHT22;5256;48.728;9.140;2023-04-24T03:11:23;8.90;99.90
10419;DHT22;5256;48.728;9.140;2023-04-24T03:13:49;8.80;99.90
10419;DHT22;5256;48.728;9.140;2023-04-24T03:16:15;8.80;99.90
10419;DHT22;5256;48.728;9.140;2023-04-24T03:18:40;8.80;99.90
10419;DHT22;5256;48.728;9.140;2023-04-24T03:21:06;8.70;99.90
10419;DHT22;5256;48.728;9.140;2023-04-24T03:23:31;8.60;99.90
10419;DHT22;5256;48.728;9.140;2023-04-24T03:25:57;8.70;99.90
10419;DHT22;5256;48.728;9.140;2023-04-24T03:28:22;8.60;99.90
10419;DHT22;5256;48.728;9.140;2023-04-24T03:30:48;8.60;99.90
10419;DHT22;5256;48.728;9.140;2023-04-24T03:33:13;8.60;99.90
10419;DHT22;5256;48.728;9.140;2023-04-24T03:35:39;8.70;99.90
10419;DHT22;5256;48.728;9.140;2023-04-24T03:38:05;8.60;99.90
10419;DHT22;5256;48.728;9.140;2023-04-24T03:40:30;8.60;99.90
10419;DHT22;5256;48.728;9.140;2023-04-24T03:42:56;8.60;99.90
10419;DHT22;5256;48.728;9.140;2023-04-24T03:45:21;8.50;99.90
10419;DHT22;5256;48.728;9.140;2023-04-24T03:47:47;8.50;99.90
10419;DHT22;5256;48.728;9.140;2023-04-24T03:50:12;8.40;99.90
10419;DHT22;5256;48.728;9.140;2023-04-24T03:52:38;8.40;99.90
10419;DHT22;5256;48.728;9.140;2023-04-24T03:55:04;8.20;99.90
10419;DHT22;5256;48.728;9.140;2023-04-24T03:57:29;8.20;99.90
10419;DHT22;5256;48.728;9.140;2023-04-24T03:59:55;8.20;99.90
10419;DHT22;5256;48.728;9.140;2023-04-24T04:02:21;8.20;99.90
10419;DHT22;5256;48.728;9.140;2023-04-24T04:04:46;8.10;99.90
10419;DHT22;5256;48.728;9.140;2023-04-24T04:07:12;8.00;99.90
10419;DHT22;5256;48.728;9.140;2023-04-24T04:09:38;7.90;99.90
10419;DHT22;5256;48.728;9.140;2023-04-24T04:12:03;7.90;99.90
10419;DHT22;5256;48.728;9.140;2023-04-24T04:14:29;7.90;99.90
10419;DHT22;5256;48.728;9.140;2023-04-24T04:16:54;7.90;99.90
10419;DHT22;5256;48.728;9.140;2023-04-24T04:19:20;8.00;99.90
10419;DHT22;5256;48.728;9.140;2023-04-24T04:21:45;8.20;99.90
10419;DHT22;5256;48.728;9.140;2023-04-24T04:24:11;8.40;99.90
10419;DHT22;5256;48.728;9.140;2023-04-24T04:26:38;8.50;99.90
10419;DHT22;5256;48.728;9.140;2023-04-24T04:29:03;8.60;99.90
10419;DHT22;5256;48.728;9.140;2023-04-24T04:31:29;8.70;99.90
10419;DHT22;5256;48.728;9.140;2023-04-24T04:33:55;8.70;99.90
10419;DHT22;5256;48.728;9.140;2023-04-24T04:36:21;8.60;99.90
10419;DHT22;5256;48.728;9.140;2023-04-24T04:38:46;8.40;99.90
10419;DHT22;5256;48.728;9.140;2023-04-24T04:41:12;8.20;99.90
10419;DHT22;5256;48.728;9.140;2023-04-24T04:43:38;8.10;99.90
10419;DHT22;5256;48.728;9.140;2023-04-24T04:46:05;8.00;99.90
10419;DHT22;5256;48.728;9.140;2023-04-24T04:48:31;7.90;99.90
10419;DHT22;5256;48.728;9.140;2023-04-24T04:50:57;7.90;99.90
10419;DHT22;5256;48.728;9.140;2023-04-24T04:53:24;7.80;99.90
10419;DHT22;5256;48.728;9.140;2023-04-24T04:55:49;7.80;99.90
10419;DHT22;5256;48.728;9.140;2023-04-24T04:58:15;7.80;99.90
10419;DHT22;5256;48.728;9.140;2023-04-24T05:00:41;7.80;99.90
10419;DHT22;5256;48.728;9.140;2023-04-24T05:03:06;7.80;99.90
10419;DHT22;5256;48.728;9.140;2023-04-24T05:05:32;7.80;99.90
10419;DHT22;5256;48.728;9.140;2023-04-24T05:07:57;7.80;99.90
10419;DHT22;5256;48.728;9.140;2023-04-24T05:10:23;7.70;99.90
10419;DHT22;5256;48.728;9.140;2023-04-24T05:12:49;7.80;99.90
10419;DHT22;5256;48.728;9.140;2023-04-24T05:15:14;7.80;99.90
10419;DHT22;5256;48.728;9.140;2023-04-24T05:17:40;7.80;99.90
10419;DHT22;5256;48.728;9.140;2023-04-24T05:20:06;7.80;99.90
10419;DHT22;5256;48.728;9.140;2023-04-24T05:22:32;7.80;99.90
10419;DHT22;5256;48.728;9.140;2023-04-24T05:24:58;7.80;99.90
10419;DHT22;5256;48.728;9.140;2023-04-24T05:27:24;7.80;99.90
10419;DHT22;5256;48.728;9.140;2023-04-24T05:29:50;7.90;99.90
10419;DHT22;5256;48.728;9.140;2023-04-24T05:32:16;7.90;99.90
10419;DHT22;5256;48.728;9.140;2023-04-24T05:34:41;7.90;99.90
10419;DHT22;5256;48.728;9.140;2023-04-24T05:37:07;8.00;99.90
10419;DHT22;5256;48.728;9.140;2023-04-24T05:39:35;8.00;99.90
10419;DHT22;5256;48.728;9.140;2023-04-24T05:42:01;8.00;99.90
10419;DHT22;5256;48.728;9.140;2023-04-24T05:44:27;8.00;99.90
10419;DHT22;5256;48.728;9.140;2023-04-24T05:46:52;8.10;99.90
10419;DHT22;5256;48.728;9.140;2023-04-24T05:49:18;8.10;99.90
10419;DHT22;5256;48.728;9.140;2023-04-24T05:51:43;8.20;99.90
10419;DHT22;5256;48.728;9.140;2023-04-24T05:54:09;8.20;99.90
10419;DHT22;5256;48.728;9.140;2023-04-24T05:56:37;8.20;99.90
10419;DHT22;5256;48.728;9.140;2023-04-24T05:59:03;8.20;99.90
10419;DHT22;5256;48.728;9.140;2023-04-24T06:01:28;8.20;99.90
10419;DHT22;5256;48.728;9.140;2023-04-24T06:03:55;8.20;99.90
10419;DHT22;5256;48.728;9.140;2023-04-24T06:06:20;8.20;99.90
10419;DHT22;5256;48.728;9.140;2023-04-24T06:08:46;8.20;99.90
10419;DHT22;5256;48.728;9.140;2023-04-24T06:11:11;8.20;99.90
10419;DHT22;5256;48.728;9.140;2023-04-24T06:13:37;8.20;99.90
10419;DHT22;5256;48.728;9.140;2023-04-24T06:16:02;8.10;99.90
10419;DHT22;5256;48.728;9.140;2023-04-24T06:18:28;8.30;99.90
10419;DHT22;5256;48.728;9.140;2023-04-24T06:20:53;8.80;99.90
10419;DHT22;5256;48.728;9.140;2023-04-24T06:23:20;9.40;99.90
10419;DHT22;5256;48.728;9.140;2023-04-24T06:25:46;10.00;99.90
10419;DHT22;5256;48.728;9.140;2023-04-24T06:28:11;10.70;99.90
10419;DHT22;5256;48.728;9.140;2023-04-24T06:30:37;11.10;99.90
10419;DHT22;5256;48.728;9.140;2023-04-24T06:33:02;11.60;99.90
10419;DHT22;5256;48.728;9.140;2023-04-24T06:35:28;11.90;99.90
10419;DHT22;5256;48.728;9.140;2023-04-24T06:37:54;12.10;99.90
10419;DHT22;5256;48.728;9.140;2023-04-24T06:40:21;12.40;99.90
10419;DHT22;5256;48.728;9.140;2023-04-24T06:42:47;12.70;99.90
10419;DHT22;5256;48.728;9.140;2023-04-24T06:45:12;12.70;99.90
10419;DHT22;5256;48.728;9.140;2023-04-24T06:47:38;12.40;99.90
10419;DHT22;5256;48.728;9.140;2023-04-24T06:50:04;12.20;99.90
10419;DHT22;5256;48.728;9.140;2023-04-24T06:52:30;12.10;99.90
10419;DHT22;5256;48.728;9.140;2023-04-24T06:55:04;12.20;99.90
10419;DHT22;5256;48.728;9.140;2023-04-24T06:57:31;12.20;99.90
10419;DHT22;5256;48.728;9.140;2023-04-24T06:59:57;11.90;99.90
10419;DHT22;5256;48.728;9.140;2023-04-24T07:02:23;11.70;99.90
10419;DHT22;5256;48.728;9.140;2023-04-24T07:04:48;11.70;99.90
10419;DHT22;5256;48.728;9.140;2023-04-24T07:07:14;11.70;99.90
10419;DHT22;5256;48.728;9.140;2023-04-24T07:09:40;11.60;99.90
10419;DHT22;5256;48.728;9.140;2023-04-24T07:12:10;11.50;99.90
10419;DHT22;5256;48.728;9.140;2023-04-24T07:14:37;11.50;99.90
10419;DHT22;5256;48.728;9.140;2023-04-24T07:17:03;11.50;99.90
10419;DHT22;5256;48.728;9.140;2023-04-24T07:19:29;11.30;99.90
10419;DHT22;5256;48.728;9.140;2023-04-24T07:21:55;10.90;99.90
10419;DHT22;5256;48.728;9.140;2023-04-24T07:24:20;10.40;99.90
10419;DHT22;5256;48.728;9.140;2023-04-24T07:26:46;10.00;99.90
10419;DHT22;5256;48.728;9.140;2023-04-24T07:29:12;9.80;99.90
10419;DHT22;5256;48.728;9.140;2023-04-24T07:31:38;9.80;99.90
10419;DHT22;5256;48.728;9.140;2023-04-24T07:34:06;9.80;99.90
10419;DHT22;5256;48.728;9.140;2023-04-24T07:36:32;9.90;99.90
10419;DHT22;5256;48.728;9.140;2023-04-24T07:38:57;10.00;99.90
10419;DHT22;5256;48.728;9.140;2023-04-24T07:41:23;10.40;99.90
10419;DHT22;5256;48.728;9.140;2023-04-24T07:43:49;10.90;99.90
10419;DHT22;5256;48.728;9.140;2023-04-24T07:46:15;11.80;99.90
10419;DHT22;5256;48.728;9.140;2023-04-24T07:48:40;12.50;99.90
10419;DHT22;5256;48.728;9.140;2023-04-24T07:51:06;13.00;99.90
10419;DHT22;5256;48.728;9.140;2023-04-24T07:53:32;12.80;99.90
10419;DHT22;5256;48.728;9.140;2023-04-24T07:55:57;12.40;99.90
10419;DHT22;5256;48.728;9.140;2023-04-24T07:58:23;11.90;99.90
10419;DHT22;5256;48.728;9.140;2023-04-24T08:00:48;11.30;99.90
10419;DHT22;5256;48.728;9.140;2023-04-24T08:03:14;11.20;99.90
10419;DHT22;5256;48.728;9.140;2023-04-24T08:05:40;11.10;99.90
10419;DHT22;5256;48.728;9.140;2023-04-24T08:08:07;11.10;99.90
10419;DHT22;5256;48.728;9.140;2023-04-24T08:10:32;10.90;99.90
10419;DHT22;5256;48.728;9.140;2023-04-24T08:12:58;10.80;99.90
10419;DHT22;5256;48.728;9.140;2023-04-24T08:15:23;10.50;99.90
10419;DHT22;5256;48.728;9.140;2023-04-24T08:17:50;10.40;99.90
10419;DHT22;5256;48.728;9.140;2023-04-24T08:20:15;10.70;99.90
10419;DHT22;5256;48.728;9.140;2023-04-24T08:22:42;10.90;99.90
10419;DHT22;5256;48.728;9.140;2023-04-24T08:25:09;10.90;99.90
10419;DHT22;5256;48.728;9.140;2023-04-24T08:27:34;10.70;99.90
10419;DHT22;5256;48.728;9.140;2023-04-24T08:30:02;10.80;99.90
10419;DHT22;5256;48.728;9.140;2023-04-24T08:32:28;11.10;99.90
10419;DHT22;5256;48.728;9.140;2023-04-24T08:34:54;11.30;99.90
10419;DHT22;5256;48.728;9.140;2023-04-24T08:37:22;11.60;99.90
10419;DHT22;5256;48.728;9.140;2023-04-24T08:39:47;11.70;99.90
10419;DHT22;5256;48.728;9.140;2023-04-24T08:42:14;11.80;99.90
10419;DHT22;5256;48.728;9.140;2023-04-24T08:44:41;12.30;99.90
10419;DHT22;5256;48.728;9.140;2023-04-24T08:47:07;13.10;99.90
10419;DHT22;5256;48.728;9.140;2023-04-24T08:49:33;12.90;99.90
10419;DHT22;5256;48.728;9.140;2023-04-24T08:52:01;12.50;99.90
10419;DHT22;5256;48.728;9.140;2023-04-24T08:54:28;12.10;99.90
10419;DHT22;5256;48.728;9.140;2023-04-24T08:56:57;12.00;99.90
10419;DHT22;5256;48.728;9.140;2023-04-24T08:59:23;11.90;99.90
10419;DHT22;5256;48.728;9.140;2023-04-24T09:01:51;11.80;99.90
10419;DHT22;5256;48.728;9.140;2023-04-24T09:04:17;12.00;99.90
10419;DHT22;5256;48.728;9.140;2023-04-24T09:06:45;12.30;99.90
10419;DHT22;5256;48.728;9.140;2023-04-24T09:09:11;12.90;99.90
10419;DHT22;5256;48.728;9.140;2023-04-24T09:11:37;13.00;99.90
10419;DHT22;5256;48.728;9.140;2023-04-24T09:14:03;12.90;99.90
10419;DHT22;5256;48.728;9.140;2023-04-24T09:16:29;12.40;99.90
10419;DHT22;5256;48.728;9.140;2023-04-24T09:18:55;11.70;99.90
10419;DHT22;5256;48.728;9.140;2023-04-24T09:21:22;11.90;99.90
10419;DHT22;5256;48.728;9.140;2023-04-24T09:24:01;11.90;99.90
10419;DHT22;5256;48.728;9.140;2023-04-24T09:26:32;11.50;99.90
10419;DHT22;5256;48.728;9.140;2023-04-24T09:28:58;11.10;99.90
10419;DHT22;5256;48.728;9.140;2023-04-24T09:31:27;10.90;99.90
10419;DHT22;5256;48.728;9.140;2023-04-24T09:34:04;11.00;99.90
10419;DHT22;5256;48.728;9.140;2023-04-24T09:36:34;12.00;99.90
10419;DHT22;5256;48.728;9.140;2023-04-24T09:39:04;12.90;99.90
10419;DHT22;5256;48.728;9.140;2023-04-24T09:41:32;12.70;99.90
10419;DHT22;5256;48.728;9.140;2023-04-24T09:44:12;12.60;99.90
10419;DHT22;5256;48.728;9.140;2023-04-24T09:46:37;12.70;99.90
10419;DHT22;5256;48.728;9.140;2023-04-24T09:49:14;12.70;99.90
10419;DHT22;5256;48.728;9.140;2023-04-24T09:51:41;12.80;99.90
10419;DHT22;5256;48.728;9.140;2023-04-24T09:54:21;12.80;99.90
10419;DHT22;5256;48.728;9.140;2023-04-24T09:56:49;12.10;99.90
10419;DHT22;5256;48.728;9.140;2023-04-24T09:59:16;11.70;99.90
10419;DHT22;5256;48.728;9.140;2023-04-24T10:01:43;11.60;99.90
10419;DHT22;5256;48.728;9.140;2023-04-24T10:04:20;11.60;99.90
10419;DHT22;5256;48.728;9.140;2023-04-24T10:06:47;11.70;99.90
10419;DHT22;5256;48.728;9.140;2023-04-24T10:09:21;11.80;99.90
10419;DHT22;5256;48.728;9.140;2023-04-24T10:11:48;12.20;99.90
10419;DHT22;5256;48.728;9.140;2023-04-24T10:14:17;12.80;99.90
10419;DHT22;5256;48.728;9.140;2023-04-24T10:16:43;12.80;99.90
10419;DHT22;5256;48.728;9.140;2023-04-24T10:19:10;12.50;99.90
10419;DHT22;5256;48.728;9.140;2023-04-24T10:21:36;12.80;99.90
10419;DHT22;5256;48.728;9.140;2023-04-24T10:24:08;12.80;99.90
10419;DHT22;5256;48.728;9.140;2023-04-24T10:26:34;12.70;99.90
10419;DHT22;5256;48.728;9.140;2023-04-24T10:29:01;12.10;99.90
10419;DHT22;5256;48.728;9.140;2023-04-24T10:31:28;12.20;99.90
10419;DHT22;5256;48.728;9.140;2023-04-24T10:33:56;12.30;99.90
10419;DHT22;5256;48.728;9.140;2023-04-24T10:36:25;12.30;99.90
10419;DHT22;5256;48.728;9.140;2023-04-24T10:38:53;12.20;99.90
10419;DHT22;5256;48.728;9.140;2023-04-24T10:41:20;12.00;99.90
10419;DHT22;5256;48.728;9.140;2023-04-24T10:43:58;12.10;99.90
10419;DHT22;5256;48.728;9.140;2023-04-24T10:46:30;12.10;99.90
10419;DHT22;5256;48.728;9.140;2023-04-24T10:48:56;12.10;99.90
10419;DHT22;5256;48.728;9.140;2023-04-24T10:51:47;12.10;99.90
10419;DHT22;5256;48.728;9.140;2023-04-24T10:54:27;11.70;99.90
10419;DHT22;5256;48.728;9.140;2023-04-24T10:56:53;11.20;99.90
10419;DHT22;5256;48.728;9.140;2023-04-24T10:59:38;11.10;99.90
10419;DHT22;5256;48.728;9.140;2023-04-24T11:02:07;10.90;99.90
10419;DHT22;5256;48.728;9.140;2023-04-24T11:04:33;10.80;99.90
10419;DHT22;5256;48.728;9.140;2023-04-24T11:07:00;10.60;99.90
10419;DHT22;5256;48.728;9.140;2023-04-24T11:09:27;10.50;99.90
10419;DHT22;5256;48.728;9.140;2023-04-24T11:12:06;10.40;99.90
10419;DHT22;5256;48.728;9.140;2023-04-24T11:17:32;10.50;99.90
10419;DHT22;5256;48.728;9.140;2023-04-24T11:20:06;10.50;99.90
10419;DHT22;5256;48.728;9.140;2023-04-24T11:22:37;10.50;99.90
10419;DHT22;5256;48.728;9.140;2023-04-24T11:25:03;10.50;99.90
10419;DHT22;5256;48.728;9.140;2023-04-24T11:27:31;10.70;99.90
10419;DHT22;5256;48.728;9.140;2023-04-24T11:32:34;11.40;99.90
10419;DHT22;5256;48.728;9.140;2023-04-24T11:39:58;12.10;99.90
10419;DHT22;5256;48.728;9.140;2023-04-24T11:42:24;12.10;99.90
10419;DHT22;5256;48.728;9.140;2023-04-24T11:44:52;12.10;99.90
10419;DHT22;5256;48.728;9.140;2023-04-24T11:47:18;11.70;99.90
10419;DHT22;5256;48.728;9.140;2023-04-24T11:49:43;11.10;99.90
10419;DHT22;5256;48.728;9.140;2023-04-24T11:52:09;10.80;99.90
10419;DHT22;5256;48.728;9.140;2023-04-24T11:54:36;10.80;99.90
10419;DHT22;5256;48.728;9.140;2023-04-24T11:57:04;11.00;99.90
10419;DHT22;5256;48.728;9.140;2023-04-24T11:59:35;11.20;99.90
10419;DHT22;5256;48.728;9.140;2023-04-24T12:02:02;11.60;99.90
10419;DHT22;5256;48.728;9.140;2023-04-24T12:04:41;11.80;99.90
10419;DHT22;5256;48.728;9.140;2023-04-24T12:07:06;11.90;99.90
10419;DHT22;5256;48.728;9.140;2023-04-24T12:09:47;11.80;99.90
10419;DHT22;5256;48.728;9.140;2023-04-24T12:12:14;11.50;99.90
10419;DHT22;5256;48.728;9.140;2023-04-24T12:14:52;11.20;99.90
10419;DHT22;5256;48.728;9.140;2023-04-24T12:17:23;10.80;99.90
10419;DHT22;5256;48.728;9.140;2023-04-24T12:19:48;10.70;99.90
10419;DHT22;5256;48.728;9.140;2023-04-24T12:22:16;10.50;99.90
10419;DHT22;5256;48.728;9.140;2023-04-24T12:25:04;10.40;99.90
10419;DHT22;5256;48.728;9.140;2023-04-24T12:27:33;10.60;99.90
10419;DHT22;5256;48.728;9.140;2023-04-24T12:30:00;10.80;99.90
10419;DHT22;5256;48.728;9.140;2023-04-24T12:32:26;11.00;99.90
10419;DHT22;5256;48.728;9.140;2023-04-24T12:34:53;11.10;99.90
10419;DHT22;5256;48.728;9.140;2023-04-24T12:37:19;11.20;99.90
10419;DHT22;5256;48.728;9.140;2023-04-24T12:40:08;11.10;99.90
10419;DHT22;5256;48.728;9.140;2023-04-24T12:42:35;11.20;99.90
10419;DHT22;5256;48.728;9.140;2023-04-24T12:45:05;11.20;99.90
10419;DHT22;5256;48.728;9.140;2023-04-24T12:47:32;11.20;99.90
10419;DHT22;5256;48.728;9.140;2023-04-24T12:49:58;11.30;99.90
10419;DHT22;5256;48.728;9.140;2023-04-24T12:52:28;11.20;99.90
10419;DHT22;5256;48.728;9.140;2023-04-24T12:54:56;10.90;99.90
10419;DHT22;5256;48.728;9.140;2023-04-24T12:57:23;10.50;99.90
10419;DHT22;5256;48.728;9.140;2023-04-24T12:59:49;10.30;99.90
10419;DHT22;5256;48.728;9.140;2023-04-24T13:02:14;10.20;99.90
10419;DHT22;5256;48.728;9.140;2023-04-24T13:04:44;10.10;99.90
10419;DHT22;5256;48.728;9.140;2023-04-24T13:07:10;10.10;99.90
10419;DHT22;5256;48.728;9.140;2023-04-24T13:09:35;10.10;99.90
10419;DHT22;5256;48.728;9.140;2023-04-24T13:12:01;10.10;99.90
10419;DHT22;5256;48.728;9.140;2023-04-24T13:14:27;10.00;99.90
10419;DHT22;5256;48.728;9.140;2023-04-24T13:16:53;9.90;99.90
10419;DHT22;5256;48.728;9.140;2023-04-24T13:19:18;9.80;99.90
10419;DHT22;5256;48.728;9.140;2023-04-24T13:21:44;9.70;99.90
10419;DHT22;5256;48.728;9.140;2023-04-24T13:24:10;9.90;99.90
10419;DHT22;5256;48.728;9.140;2023-04-24T13:26:35;10.20;99.90
10419;DHT22;5256;48.728;9.140;2023-04-24T13:29:01;10.50;99.90
10419;DHT22;5256;48.728;9.140;2023-04-24T13:31:26;10.80;99.90
10419;DHT22;5256;48.728;9.140;2023-04-24T13:33:52;11.00;99.90
10419;DHT22;5256;48.728;9.140;2023-04-24T13:36:17;11.00;99.90
10419;DHT22;5256;48.728;9.140;2023-04-24T13:38:44;10.80;99.90
10419;DHT22;5256;48.728;9.140;2023-04-24T13:41:10;10.70;99.90
10419;DHT22;5256;48.728;9.140;2023-04-24T13:43:35;10.50;99.90
10419;DHT22;5256;48.728;9.140;2023-04-24T13:46:01;10.40;99.90
10419;DHT22;5256;48.728;9.140;2023-04-24T13:48:28;10.30;99.90
10419;DHT22;5256;48.728;9.140;2023-04-24T13:50:54;10.10;99.90
10419;DHT22;5256;48.728;9.140;2023-04-24T13:53:19;9.90;99.90
10419;DHT22;5256;48.728;9.140;2023-04-24T13:55:45;9.70;99.90
10419;DHT22;5256;48.728;9.140;2023-04-24T13:58:10;9.50;99.90
10419;DHT22;5256;48.728;9.140;2023-04-24T14:00:36;9.40;99.90
10419;DHT22;5256;48.728;9.140;2023-04-24T14:03:02;9.80;99.90
10419;DHT22;5256;48.728;9.140;2023-04-24T14:05:27;10.30;99.90
10419;DHT22;5256;48.728;9.140;2023-04-24T14:07:53;10.70;99.90
10419;DHT22;5256;48.728;9.140;2023-04-24T14:10:18;11.00;99.90
10419;DHT22;5256;48.728;9.140;2023-04-24T14:12:44;10.80;99.90
10419;DHT22;5256;48.728;9.140;2023-04-24T14:15:10;10.70;99.90
10419;DHT22;5256;48.728;9.140;2023-04-24T14:17:37;10.50;99.90
10419;DHT22;5256;48.728;9.140;2023-04-24T14:20:03;10.20;99.90
10419;DHT22;5256;48.728;9.140;2023-04-24T14:22:29;9.80;99.90
10419;DHT22;5256;48.728;9.140;2023-04-24T14:24:55;9.60;99.90
10419;DHT22;5256;48.728;9.140;2023-04-24T14:27:21;9.40;99.90
10419;DHT22;5256;48.728;9.140;2023-04-24T14:29:46;9.30;99.90
10419;DHT22;5256;48.728;9.140;2023-04-24T14:32:12;9.10;99.90
10419;DHT22;5256;48.728;9.140;2023-04-24T14:34:40;9.10;99.90
10419;DHT22;5256;48.728;9.140;2023-04-24T14:37:05;9.50;99.90
10419;DHT22;5256;48.728;9.140;2023-04-24T14:39:31;10.10;99.90
10419;DHT22;5256;48.728;9.140;2023-04-24T14:41:56;10.90;99.90
10419;DHT22;5256;48.728;9.140;2023-04-24T14:44:22;11.80;99.90
10419;DHT22;5256;48.728;9.140;2023-04-24T14:46:48;12.00;99.90
10419;DHT22;5256;48.728;9.140;2023-04-24T14:49:14;11.60;99.90
10419;DHT22;5256;48.728;9.140;2023-04-24T14:51:39;11.10;99.90
10419;DHT22;5256;48.728;9.140;2023-04-24T14:54:06;10.90;99.90
10419;DHT22;5256;48.728;9.140;2023-04-24T14:56:32;10.90;99.90
10419;DHT22;5256;48.728;9.140;2023-04-24T14:58:57;11.50;99.90
10419;DHT22;5256;48.728;9.140;2023-04-24T15:01:23;12.70;99.90
10419;DHT22;5256;48.728;9.140;2023-04-24T15:03:49;13.60;99.90
10419;DHT22;5256;48.728;9.140;2023-04-24T15:06:15;13.80;99.90
10419;DHT22;5256;48.728;9.140;2023-04-24T15:08:41;13.30;99.90
10419;DHT22;5256;48.728;9.140;2023-04-24T15:11:07;12.50;99.90
10419;DHT22;5256;48.728;9.140;2023-04-24T15:13:33;11.90;99.90
10419;DHT22;5256;48.728;9.140;2023-04-24T15:15:58;11.60;99.90
10419;DHT22;5256;48.728;9.140;2023-04-24T15:18:24;11.30;99.90
10419;DHT22;5256;48.728;9.140;2023-04-24T15:20:50;11.10;99.90
10419;DHT22;5256;48.728;9.140;2023-04-24T15:23:16;10.90;99.90
10419;DHT22;5256;48.728;9.140;2023-04-24T15:25:41;10.90;99.90
10419;DHT22;5256;48.728;9.140;2023-04-24T15:28:07;10.80;99.90
10419;DHT22;5256;48.728;9.140;2023-04-24T15:30:32;10.60;99.90
10419;DHT22;5256;48.728;9.140;2023-04-24T15:32:59;10.50;99.90
10419;DHT22;5256;48.728;9.140;2023-04-24T15:35:25;10.40;99.90
10419;DHT22;5256;48.728;9.140;2023-04-24T15:37:51;10.40;99.90
10419;DHT22;5256;48.728;9.140;2023-04-24T15:40:16;10.30;99.90
10419;DHT22;5256;48.728;9.140;2023-04-24T15:42:42;9.80;99.90
10419;DHT22;5256;48.728;9.140;2023-04-24T15:45:09;9.40;99.90
10419;DHT22;5256;48.728;9.140;2023-04-24T15:47:34;9.20;99.90
10419;DHT22;5256;48.728;9.140;2023-04-24T15:50:02;9.10;99.90
10419;DHT22;5256;48.728;9.140;2023-04-24T15:52:28;9.10;99.90
10419;DHT22;5256;48.728;9.140;2023-04-24T15:54:53;9.20;99.90
10419;DHT22;5256;48.728;9.140;2023-04-24T15:57:19;9.20;99.90
10419;DHT22;5256;48.728;9.140;2023-04-24T15:59:45;9.30;99.90